Zonguldak, Turkey
Current Conditions -  °F | °C
As of 6:50 AM on Friday 31 Oct 2014 (Local Time) from LTBQ Reporting Station
Rain Showers Rain Showers  
Wind Chill: 52°   Ceiling: 1700
Heat Index: 52°   Visibility: 2.9mi
Dew Point: 50°   Wind: 8mph
Humidity: 94%   Direction: 230°SW
Pressure: 30.03"   Gusts: NA
Location:  41.46°N, 31.8°E
Report Text: LTBQ 310350Z 23007KT 190V290 4700 -SHRA BR SCT010 BKN017 BKN070 11/10 Q1017 TEMPO 2500 SHRA BR
Loading
Personal Weather Stations






























Interactive Weather Map
Tropical Storm Tracking
New forecast layout! Learn more

10-Day Weather Forecast

Advertisements
Track Severe Weather on mobile